createdAt,value
2023-02-18T00:02:52.256Z,1.38
2023-02-18T00:07:56.494Z,1.27
2023-02-18T00:13:02.281Z,1.00
2023-02-18T00:18:08.140Z,1.25
2023-02-18T00:23:11.882Z,1.00
2023-02-18T00:28:15.635Z,0.77
2023-02-18T00:33:20.412Z,0.90
2023-02-18T00:38:24.092Z,0.68
2023-02-18T00:43:28.099Z,0.88
2023-02-18T00:48:32.868Z,0.68
2023-02-18T00:53:37.035Z,0.93
2023-02-18T00:58:40.768Z,0.65
2023-02-18T01:03:45.955Z,0.65
2023-02-18T01:08:49.941Z,0.70
2023-02-18T01:13:53.463Z,1.10
2023-02-18T01:18:58.286Z,0.82
2023-02-18T01:24:01.724Z,0.50
2023-02-18T01:29:05.196Z,0.60
2023-02-18T01:34:10.099Z,1.15
2023-02-18T01:39:13.572Z,0.95
2023-02-18T01:44:19.613Z,0.68
2023-02-18T01:49:27.972Z,0.85
2023-02-18T01:54:34.951Z,1.10
2023-02-18T01:59:43.330Z,0.63
2023-02-18T02:04:48.920Z,1.10
2023-02-18T02:09:55.376Z,1.27
2023-02-18T02:15:18.888Z,1.30
2023-02-18T02:21:07.639Z,1.10
2023-02-18T02:26:45.986Z,0.95
2023-02-18T02:32:10.125Z,0.77
2023-02-18T02:37:19.469Z,0.85
2023-02-18T02:42:30.926Z,1.00
2023-02-18T02:47:40.601Z,0.80
2023-02-18T02:52:50.619Z,0.68
2023-02-18T02:57:55.806Z,0.63
2023-02-18T03:03:33.535Z,0.63
2023-02-18T03:08:49.866Z,0.65
2023-02-18T03:14:03.482Z,0.50
2023-02-18T03:24:17.790Z,1.17
2023-02-18T03:29:23.531Z,1.38
2023-02-18T03:34:31.323Z,0.85
2023-02-18T03:39:40.415Z,0.88
2023-02-18T03:44:43.862Z,0.60
2023-02-18T03:49:47.322Z,0.63
2023-02-18T03:54:52.171Z,0.68
2023-02-18T03:59:55.609Z,0.55
2023-02-18T04:04:59.059Z,0.50
2023-02-18T04:10:03.894Z,1.00
2023-02-18T04:15:08.082Z,0.70
2023-02-18T04:20:12.840Z,2.70
2023-02-18T04:25:18.095Z,0.38
2023-02-18T04:30:21.706Z,0.70
2023-02-18T04:35:25.493Z,0.90
2023-02-18T04:40:30.772Z,0.50
2023-02-18T04:45:34.200Z,0.90
2023-02-18T04:50:37.596Z,0.60
2023-02-18T04:55:42.405Z,0.45
2023-02-18T05:00:46.511Z,1.70
2023-02-18T05:05:50.005Z,0.73
2023-02-18T05:10:54.756Z,0.68
2023-02-18T05:15:58.193Z,0.50
2023-02-18T05:21:02.002Z,0.70
2023-02-18T05:26:07.198Z,1.23
2023-02-18T05:31:10.921Z,0.75
2023-02-18T05:36:14.370Z,0.98
2023-02-18T05:41:19.160Z,1.05
2023-02-18T05:46:23.047Z,0.70
2023-02-18T05:51:26.624Z,0.60
2023-02-18T05:56:31.747Z,0.70
2023-02-18T06:01:35.694Z,0.70
2023-02-18T06:06:39.945Z,0.57
2023-02-18T06:11:45.290Z,0.57
2023-02-18T06:16:48.829Z,0.68
2023-02-18T06:21:52.299Z,0.85
2023-02-18T06:26:57.451Z,1.00
2023-02-18T06:32:01.246Z,1.00
2023-02-18T06:37:04.774Z,0.90
2023-02-18T06:42:09.565Z,0.93
2023-02-18T06:47:12.989Z,0.90
2023-02-18T06:52:16.461Z,0.90
2023-02-18T06:57:21.317Z,1.00
2023-02-18T07:02:25.724Z,1.00
2023-02-18T07:07:30.421Z,0.60
2023-02-18T07:12:35.253Z,0.75
2023-02-18T07:17:38.810Z,0.60
2023-02-18T07:22:42.227Z,1.05
2023-02-18T07:27:47.044Z,0.68
2023-02-18T07:32:50.486Z,0.80
2023-02-18T07:37:53.962Z,0.90
2023-02-18T07:42:58.927Z,0.93
2023-02-18T07:48:02.357Z,0.90
2023-02-18T07:53:06.707Z,0.80
2023-02-18T07:58:11.745Z,1.10
2023-02-18T08:03:15.730Z,0.70
2023-02-18T08:08:21.498Z,1.02
2023-02-18T08:13:26.459Z,0.88
2023-02-18T08:18:29.887Z,1.50
2023-02-18T08:23:33.568Z,1.02
2023-02-18T08:28:38.304Z,1.27
2023-02-18T08:33:41.694Z,2.00
2023-02-18T08:38:45.107Z,1.60
2023-02-18T08:43:50.485Z,0.98
2023-02-18T08:48:53.885Z,1.10
2023-02-18T08:53:57.495Z,0.70
2023-02-18T08:59:02.428Z,1.05
2023-02-18T09:04:06.300Z,1.13
2023-02-18T09:09:10.467Z,0.95
2023-02-18T09:14:15.814Z,0.80
2023-02-18T09:19:19.587Z,0.90
2023-02-18T09:24:24.729Z,0.88
2023-02-18T09:29:29.550Z,0.80
2023-02-18T09:34:33.417Z,0.32
2023-02-18T09:39:37.042Z,0.70
2023-02-18T09:44:45.645Z,0.70
2023-02-18T09:49:52.933Z,0.80
2023-02-18T09:54:56.611Z,0.90
2023-02-18T10:00:05.081Z,0.90
2023-02-18T10:05:13.545Z,1.08
2023-02-18T10:10:22.261Z,1.00
2023-02-18T10:15:31.551Z,1.48
2023-02-18T10:20:35.600Z,1.70
2023-02-18T10:25:44.831Z,0.80
2023-02-18T10:30:57.329Z,1.45
2023-02-18T10:36:09.088Z,2.00
2023-02-18T10:41:23.754Z,1.33
2023-02-18T10:46:35.747Z,1.55
2023-02-18T10:51:43.419Z,1.23
2023-02-18T10:56:50.268Z,1.30
2023-02-18T11:01:58.425Z,2.47
2023-02-18T11:07:06.412Z,1.98
2023-02-18T11:12:18.414Z,1.90
2023-02-18T11:17:28.650Z,1.85
2023-02-18T11:22:35.126Z,1.80
2023-02-18T11:27:43.285Z,1.70
2023-02-18T11:32:50.540Z,2.03
2023-02-18T11:37:54.615Z,1.92
2023-02-18T11:43:05.964Z,2.03
2023-02-18T11:48:17.580Z,2.10
2023-02-18T11:53:29.238Z,2.10
2023-02-18T11:58:39.726Z,2.58
2023-02-18T12:03:49.977Z,2.08
2023-02-18T12:08:58.966Z,2.28
2023-02-18T12:14:03.089Z,3.33
2023-02-18T12:19:25.465Z,2.55
2023-02-18T12:24:45.092Z,3.00
2023-02-18T12:30:19.635Z,3.13
2023-02-18T12:35:49.224Z,2.70
2023-02-18T12:41:20.620Z,2.75
2023-02-18T12:46:41.182Z,2.83
2023-02-18T12:51:59.125Z,3.90
2023-02-18T12:57:35.034Z,4.18
2023-02-18T13:02:55.838Z,3.70
2023-02-18T13:08:14.634Z,4.20
2023-02-18T13:13:21.378Z,4.60
2023-02-18T13:18:29.556Z,4.50
2023-02-18T13:23:38.000Z,4.78
2023-02-18T13:28:48.005Z,4.30
2023-02-18T13:33:57.764Z,4.68
2023-02-18T13:39:07.366Z,6.25
2023-02-18T13:44:26.682Z,6.13
2023-02-18T13:49:34.632Z,6.93
2023-02-18T13:54:44.870Z,4.63
2023-02-18T13:59:52.512Z,4.43
2023-02-18T14:04:57.249Z,6.85
2023-02-18T14:10:03.769Z,5.38
2023-02-18T14:15:44.626Z,5.57
2023-02-18T14:20:51.509Z,5.70
2023-02-18T14:25:59.608Z,7.70
2023-02-18T14:31:03.644Z,8.10
2023-02-18T14:36:26.576Z,8.00
2023-02-18T14:41:46.402Z,8.13
2023-02-18T14:47:06.690Z,9.15
2023-02-18T14:52:20.693Z,9.35
2023-02-18T14:57:34.125Z,9.52
2023-02-18T15:02:39.485Z,10.13
2023-02-18T15:07:43.016Z,6.93
2023-02-18T15:12:48.714Z,7.07
2023-02-18T15:17:52.719Z,5.93
2023-02-18T15:22:56.610Z,5.47
2023-02-18T15:28:01.530Z,4.50
2023-02-18T15:33:14.302Z,1.98
2023-02-18T15:38:19.815Z,1.98
2023-02-18T15:43:27.260Z,1.60
2023-02-18T15:48:33.806Z,1.73
2023-02-18T15:53:40.766Z,1.17
2023-02-18T15:58:45.561Z,0.90
2023-02-18T16:03:50.670Z,1.48
2023-02-18T16:08:59.113Z,1.30
2023-02-18T16:14:06.377Z,1.23
2023-02-18T16:19:26.037Z,1.33
2023-02-18T16:24:33.076Z,1.35
2023-02-18T16:29:41.269Z,1.02
2023-02-18T16:34:44.796Z,1.50
2023-02-18T16:39:49.482Z,1.20
2023-02-18T16:44:54.436Z,1.25
2023-02-18T16:49:58.801Z,1.00
2023-02-18T16:55:02.288Z,1.20
2023-02-18T17:00:08.633Z,1.30
2023-02-18T17:05:26.375Z,0.93
2023-02-18T17:10:30.481Z,0.80
2023-02-18T17:15:37.117Z,1.30
2023-02-18T17:20:41.109Z,1.15
2023-02-18T17:25:45.711Z,1.80
2023-02-18T17:30:56.443Z,1.20
2023-02-18T17:35:59.912Z,1.00
2023-02-18T17:41:03.331Z,1.20
2023-02-18T17:46:12.826Z,0.95
2023-02-18T17:51:24.892Z,0.80
2023-02-18T17:56:28.424Z,1.17
2023-02-18T18:01:33.304Z,0.88
2023-02-18T18:06:36.720Z,1.35
2023-02-18T18:11:40.352Z,1.27
2023-02-18T18:16:45.214Z,1.20
2023-02-18T18:21:48.930Z,1.33
2023-02-18T18:26:52.364Z,1.35
2023-02-18T18:31:57.338Z,1.52
2023-02-18T18:37:00.767Z,1.15
2023-02-18T18:42:04.256Z,1.30
2023-02-18T18:47:09.011Z,1.52
2023-02-18T18:52:17.210Z,1.20
2023-02-18T18:57:20.705Z,1.50
2023-02-18T19:02:25.714Z,1.40
2023-02-18T19:07:29.170Z,1.60
2023-02-18T19:12:32.903Z,2.10
2023-02-18T19:17:38.010Z,2.00
2023-02-18T19:22:41.578Z,2.28
2023-02-18T19:27:46.595Z,2.70
2023-02-18T19:32:52.276Z,2.83
2023-02-18T19:37:56.196Z,3.83
2023-02-18T19:42:59.912Z,3.13
2023-02-18T19:48:05.187Z,1.98
2023-02-18T19:53:09.442Z,1.63
2023-02-18T19:58:12.888Z,2.40
2023-02-18T20:03:17.833Z,1.88
2023-02-18T20:08:21.258Z,1.70
2023-02-18T20:13:24.920Z,2.47
2023-02-18T20:18:30.094Z,1.40
2023-02-18T20:23:33.761Z,1.50
2023-02-18T20:28:37.231Z,1.05
2023-02-18T20:33:43.244Z,1.00
2023-02-18T20:38:51.728Z,1.25
2023-02-18T20:44:00.119Z,1.27
2023-02-18T20:49:06.650Z,1.90
2023-02-18T20:54:15.625Z,1.27
2023-02-18T20:59:20.896Z,1.27
2023-02-18T21:04:25.972Z,1.55
2023-02-18T21:09:29.368Z,1.50
2023-02-18T21:14:32.975Z,1.17
2023-02-18T21:19:38.096Z,1.02
2023-02-18T21:24:41.575Z,1.52
2023-02-18T21:29:45.049Z,1.30
2023-02-18T21:34:50.198Z,1.58
2023-02-18T21:39:53.625Z,1.73
2023-02-18T21:44:57.040Z,1.73
2023-02-18T21:50:02.101Z,1.90
2023-02-18T21:55:05.984Z,1.90
2023-02-18T22:00:20.129Z,2.28
2023-02-18T22:05:28.379Z,2.38
2023-02-18T22:10:32.051Z,2.30
2023-02-18T22:15:35.546Z,2.35
2023-02-18T22:20:40.919Z,2.22
2023-02-18T22:25:44.328Z,2.95
2023-02-18T22:30:47.744Z,2.25
2023-02-18T22:35:52.525Z,2.70
2023-02-18T22:40:55.966Z,2.42
2023-02-18T22:46:03.463Z,2.17
2023-02-18T22:51:11.372Z,2.60
2023-02-18T22:56:18.298Z,2.72
2023-02-18T23:01:23.330Z,2.85
2023-02-18T23:06:28.835Z,3.80
2023-02-18T23:11:32.310Z,2.60
2023-02-18T23:16:56.543Z,2.47
2023-02-18T23:22:01.683Z,2.63
2023-02-18T23:27:06.467Z,2.15
2023-02-18T23:32:10.607Z,2.50
2023-02-18T23:37:15.952Z,2.58
2023-02-18T23:42:19.368Z,3.17
2023-02-18T23:47:23.002Z,3.05
2023-02-18T23:52:27.866Z,2.53
2023-02-18T23:57:31.891Z,2.15
